sensor_id;sensor_type;location;lat;lon;timestamp;pressure;altitude;pressure_sealevel;temperature;humidity
49297;BME280;35163;48.878;18.040;2023-06-24T00:00:02;98586.19;;;23.07;49.55
49297;BME280;35163;48.878;18.040;2023-06-24T00:02:34;98591.44;;;23.07;50.14
49297;BME280;35163;48.878;18.040;2023-06-24T00:05:10;98583.66;;;23.05;49.66
49297;BME280;35163;48.878;18.040;2023-06-24T00:07:37;98588.34;;;23.02;50.21
49297;BME280;35163;48.878;18.040;2023-06-24T00:10:14;98587.13;;;23.06;49.99
49297;BME280;35163;48.878;18.040;2023-06-24T00:12:58;98595.88;;;23.06;49.97
49297;BME280;35163;48.878;18.040;2023-06-24T00:15:28;98594.22;;;23.05;49.74
49297;BME280;35163;48.878;18.040;2023-06-24T00:17:55;98598.63;;;23.05;49.73
49297;BME280;35163;48.878;18.040;2023-06-24T00:20:31;98596.97;;;23.04;50.11
49297;BME280;35163;48.878;18.040;2023-06-24T00:22:59;98594.47;;;23.02;49.56
49297;BME280;35163;48.878;18.040;2023-06-24T00:28:02;98598.03;;;23.01;50.08
49297;BME280;35163;48.878;18.040;2023-06-24T00:30:29;98604.16;;;23.02;50.12
49297;BME280;35163;48.878;18.040;2023-06-24T00:32:56;98604.28;;;23.00;50.58
49297;BME280;35163;48.878;18.040;2023-06-24T00:35:22;98608.25;;;22.94;50.38
49297;BME280;35163;48.878;18.040;2023-06-24T00:37:49;98615.78;;;22.99;50.69
49297;BME280;35163;48.878;18.040;2023-06-24T00:40:16;98610.63;;;22.98;50.89
49297;BME280;35163;48.878;18.040;2023-06-24T00:42:45;98610.41;;;23.01;50.59
49297;BME280;35163;48.878;18.040;2023-06-24T00:45:12;98610.50;;;22.99;50.60
49297;BME280;35163;48.878;18.040;2023-06-24T00:47:45;98608.13;;;22.96;50.46
49297;BME280;35163;48.878;18.040;2023-06-24T00:50:12;98617.13;;;22.93;51.12
49297;BME280;35163;48.878;18.040;2023-06-24T00:52:39;98622.28;;;22.95;50.71
49297;BME280;35163;48.878;18.040;2023-06-24T00:55:14;98627.81;;;22.92;50.89
49297;BME280;35163;48.878;18.040;2023-06-24T00:57:45;98623.47;;;22.91;50.70
49297;BME280;35163;48.878;18.040;2023-06-24T01:00:12;98610.53;;;22.88;50.51
49297;BME280;35163;48.878;18.040;2023-06-24T01:02:43;98611.50;;;22.87;50.98
49297;BME280;35163;48.878;18.040;2023-06-24T01:05:11;98614.03;;;22.88;50.81
49297;BME280;35163;48.878;18.040;2023-06-24T01:07:38;98611.50;;;22.87;50.91
49297;BME280;35163;48.878;18.040;2023-06-24T01:10:06;98614.97;;;22.87;50.90
49297;BME280;35163;48.878;18.040;2023-06-24T01:12:35;98621.59;;;22.81;51.05
49297;BME280;35163;48.878;18.040;2023-06-24T01:15:03;98620.88;;;22.79;51.12
49297;BME280;35163;48.878;18.040;2023-06-24T01:17:35;98621.59;;;22.81;51.45
49297;BME280;35163;48.878;18.040;2023-06-24T01:20:11;98619.91;;;22.80;51.49
49297;BME280;35163;48.878;18.040;2023-06-24T01:25:51;98620.00;;;22.79;51.30
49297;BME280;35163;48.878;18.040;2023-06-24T01:34:25;98605.06;;;22.79;50.73
49297;BME280;35163;48.878;18.040;2023-06-24T01:37:08;98601.09;;;22.74;51.12
49297;BME280;35163;48.878;18.040;2023-06-24T01:39:49;98608.31;;;22.72;51.50
49297;BME280;35163;48.878;18.040;2023-06-24T01:42:21;98596.06;;;22.70;51.93
49297;BME280;35163;48.878;18.040;2023-06-24T01:44:49;98593.81;;;22.66;51.53
49297;BME280;35163;48.878;18.040;2023-06-24T01:47:20;98586.03;;;22.64;51.73
49297;BME280;35163;48.878;18.040;2023-06-24T01:49:49;98588.03;;;22.61;51.86
49297;BME280;35163;48.878;18.040;2023-06-24T01:52:21;98586.28;;;22.61;51.68
49297;BME280;35163;48.878;18.040;2023-06-24T01:54:50;98590.78;;;22.59;51.99
49297;BME280;35163;48.878;18.040;2023-06-24T01:57:26;98595.22;;;22.58;51.61
49297;BME280;35163;48.878;18.040;2023-06-24T01:59:54;98593.56;;;22.57;52.25
49297;BME280;35163;48.878;18.040;2023-06-24T02:02:24;98593.81;;;22.54;52.49
49297;BME280;35163;48.878;18.040;2023-06-24T02:04:53;98600.25;;;22.50;52.68
49297;BME280;35163;48.878;18.040;2023-06-24T02:07:22;98594.03;;;22.51;52.88
49297;BME280;35163;48.878;18.040;2023-06-24T02:09:51;98592.72;;;22.45;52.66
49297;BME280;35163;48.878;18.040;2023-06-24T02:12:18;98590.44;;;22.41;52.76
49297;BME280;35163;48.878;18.040;2023-06-24T02:14:47;98590.69;;;22.38;53.01
49297;BME280;35163;48.878;18.040;2023-06-24T02:17:15;98582.06;;;22.36;53.41
49297;BME280;35163;48.878;18.040;2023-06-24T02:19:43;98577.75;;;22.34;53.22
49297;BME280;35163;48.878;18.040;2023-06-24T02:22:10;98573.47;;;22.33;53.11
49297;BME280;35163;48.878;18.040;2023-06-24T02:24:38;98584.25;;;22.30;53.05
49297;BME280;35163;48.878;18.040;2023-06-24T02:27:08;98581.13;;;22.25;53.62
49297;BME280;35163;48.878;18.040;2023-06-24T02:29:36;98587.94;;;22.16;54.15
49297;BME280;35163;48.878;18.040;2023-06-24T02:32:04;98586.38;;;22.14;54.56
49297;BME280;35163;48.878;18.040;2023-06-24T02:34:31;98581.81;;;22.16;54.18
49297;BME280;35163;48.878;18.040;2023-06-24T02:36:57;98579.06;;;22.17;54.60
49297;BME280;35163;48.878;18.040;2023-06-24T02:39:24;98573.19;;;22.14;54.31
49297;BME280;35163;48.878;18.040;2023-06-24T02:41:51;98574.66;;;22.18;53.98
49297;BME280;35163;48.878;18.040;2023-06-24T02:44:18;98562.44;;;22.17;54.21
49297;BME280;35163;48.878;18.040;2023-06-24T02:46:45;98560.03;;;22.14;54.75
49297;BME280;35163;48.878;18.040;2023-06-24T02:49:15;98560.03;;;22.14;54.87
49297;BME280;35163;48.878;18.040;2023-06-24T02:51:44;98563.63;;;22.13;54.91
49297;BME280;35163;48.878;18.040;2023-06-24T02:54:11;98565.78;;;22.07;55.31
49297;BME280;35163;48.878;18.040;2023-06-24T02:56:39;98565.19;;;22.04;55.21
49297;BME280;35163;48.878;18.040;2023-06-24T02:59:13;98563.28;;;22.06;55.68
49297;BME280;35163;48.878;18.040;2023-06-24T03:01:40;98568.91;;;22.01;55.51
49297;BME280;35163;48.878;18.040;2023-06-24T03:04:19;98565.41;;;22.01;55.96
49297;BME280;35163;48.878;18.040;2023-06-24T03:06:47;98559.06;;;21.92;55.66
49297;BME280;35163;48.878;18.040;2023-06-24T03:09:16;98564.47;;;22.02;55.64
49297;BME280;35163;48.878;18.040;2023-06-24T03:11:44;98574.75;;;22.05;56.24
49297;BME280;35163;48.878;18.040;2023-06-24T03:14:11;98583.00;;;22.00;55.98
49297;BME280;35163;48.878;18.040;2023-06-24T03:16:38;98577.75;;;22.00;56.12
49297;BME280;35163;48.878;18.040;2023-06-24T03:19:05;98581.34;;;21.99;56.50
49297;BME280;35163;48.878;18.040;2023-06-24T03:21:31;98588.50;;;21.97;56.60
49297;BME280;35163;48.878;18.040;2023-06-24T03:23:58;98596.66;;;21.94;56.93
49297;BME280;35163;48.878;18.040;2023-06-24T03:26:36;98605.34;;;21.94;56.67
49297;BME280;35163;48.878;18.040;2023-06-24T03:29:03;98604.78;;;21.91;57.07
49297;BME280;35163;48.878;18.040;2023-06-24T03:31:30;98609.56;;;21.97;57.30
49297;BME280;35163;48.878;18.040;2023-06-24T03:33:57;98614.59;;;22.00;56.78
49297;BME280;35163;48.878;18.040;2023-06-24T03:36:24;98616.28;;;22.01;56.52
49297;BME280;35163;48.878;18.040;2023-06-24T03:38:56;98626.81;;;22.01;57.13
49297;BME280;35163;48.878;18.040;2023-06-24T03:41:23;98618.06;;;22.01;57.45
49297;BME280;35163;48.878;18.040;2023-06-24T03:43:49;98623.94;;;22.04;56.83
49297;BME280;35163;48.878;18.040;2023-06-24T03:46:16;98626.81;;;22.01;56.91
49297;BME280;35163;48.878;18.040;2023-06-24T03:48:43;98637.09;;;22.04;57.49
49297;BME280;35163;48.878;18.040;2023-06-24T03:51:09;98640.66;;;22.03;57.54
49297;BME280;35163;48.878;18.040;2023-06-24T03:53:36;98645.69;;;22.06;57.79
49297;BME280;35163;48.878;18.040;2023-06-24T03:56:03;98642.13;;;22.07;57.72
49297;BME280;35163;48.878;18.040;2023-06-24T03:58:29;98643.78;;;22.08;57.38
49297;BME280;35163;48.878;18.040;2023-06-24T04:00:59;98638.41;;;22.10;57.85
49297;BME280;35163;48.878;18.040;2023-06-24T04:03:26;98642.63;;;22.13;57.98
49297;BME280;35163;48.878;18.040;2023-06-24T04:05:56;98640.59;;;22.16;57.92
49297;BME280;35163;48.878;18.040;2023-06-24T04:08:23;98646.59;;;22.18;57.50
49297;BME280;35163;48.878;18.040;2023-06-24T04:10:51;98637.00;;;22.17;57.90
49297;BME280;35163;48.878;18.040;2023-06-24T04:13:18;98644.03;;;22.17;57.65
49297;BME280;35163;48.878;18.040;2023-06-24T04:15:45;98649.44;;;22.15;58.00
49297;BME280;35163;48.878;18.040;2023-06-24T04:18:11;98644.88;;;22.17;57.60
49297;BME280;35163;48.878;18.040;2023-06-24T04:20:38;98642.88;;;22.21;57.94
49297;BME280;35163;48.878;18.040;2023-06-24T04:23:08;98650.66;;;22.23;57.78
49297;BME280;35163;48.878;18.040;2023-06-24T04:25:37;98654.94;;;22.24;58.45
49297;BME280;35163;48.878;18.040;2023-06-24T04:28:06;98658.53;;;22.23;58.94
49297;BME280;35163;48.878;18.040;2023-06-24T04:30:33;98653.28;;;22.23;58.81
49297;BME280;35163;48.878;18.040;2023-06-24T04:33:01;98648.50;;;22.28;58.29
49297;BME280;35163;48.878;18.040;2023-06-24T04:35:31;98650.16;;;22.29;58.44
49297;BME280;35163;48.878;18.040;2023-06-24T04:37:59;98644.81;;;22.30;58.11
49297;BME280;35163;48.878;18.040;2023-06-24T04:40:26;98643.84;;;22.31;58.11
49297;BME280;35163;48.878;18.040;2023-06-24T04:42:52;98649.94;;;22.32;58.31
49297;BME280;35163;48.878;18.040;2023-06-24T04:45:19;98647.44;;;22.30;58.32
49297;BME280;35163;48.878;18.040;2023-06-24T04:47:45;98654.63;;;22.28;58.69
49297;BME280;35163;48.878;18.040;2023-06-24T04:50:12;98657.72;;;22.33;58.51
49297;BME280;35163;48.878;18.040;2023-06-24T04:52:39;98672.94;;;22.30;58.47
49297;BME280;35163;48.878;18.040;2023-06-24T04:55:06;98664.41;;;22.26;59.17
49297;BME280;35163;48.878;18.040;2023-06-24T04:57:33;98669.81;;;22.25;58.92
49297;BME280;35163;48.878;18.040;2023-06-24T05:00:02;98668.09;;;22.24;59.79
49297;BME280;35163;48.878;18.040;2023-06-24T05:02:29;98673.97;;;22.27;59.37
49297;BME280;35163;48.878;18.040;2023-06-24T05:04:56;98667.66;;;22.30;59.59
49297;BME280;35163;48.878;18.040;2023-06-24T05:07:23;98662.16;;;22.33;59.26
49297;BME280;35163;48.878;18.040;2023-06-24T05:09:49;98668.28;;;22.33;59.38
49297;BME280;35163;48.878;18.040;2023-06-24T05:12:17;98677.84;;;22.34;58.90
49297;BME280;35163;48.878;18.040;2023-06-24T05:14:44;98681.19;;;22.37;59.47
49297;BME280;35163;48.878;18.040;2023-06-24T05:17:15;98677.22;;;22.31;59.85
49297;BME280;35163;48.878;18.040;2023-06-24T05:19:42;98680.09;;;22.39;59.50
49297;BME280;35163;48.878;18.040;2023-06-24T05:22:09;98683.72;;;22.38;59.45
49297;BME280;35163;48.878;18.040;2023-06-24T05:24:36;98684.69;;;22.37;59.36
49297;BME280;35163;48.878;18.040;2023-06-24T05:27:06;98678.31;;;22.40;59.92
49297;BME280;35163;48.878;18.040;2023-06-24T05:29:33;98674.50;;;22.44;59.33
49297;BME280;35163;48.878;18.040;2023-06-24T05:32:00;98674.03;;;22.50;59.92
49297;BME280;35163;48.878;18.040;2023-06-24T05:34:30;98682.28;;;22.45;60.18
49297;BME280;35163;48.878;18.040;2023-06-24T05:36:57;98682.88;;;22.49;60.85
49297;BME280;35163;48.878;18.040;2023-06-24T05:39:24;98677.38;;;22.52;60.32
49297;BME280;35163;48.878;18.040;2023-06-24T05:41:50;98671.63;;;22.58;59.88
49297;BME280;35163;48.878;18.040;2023-06-24T05:44:17;98677.28;;;22.65;60.45
49297;BME280;35163;48.878;18.040;2023-06-24T05:46:45;98679.56;;;22.70;59.75
49297;BME280;35163;48.878;18.040;2023-06-24T05:49:13;98684.47;;;22.75;59.92
49297;BME280;35163;48.878;18.040;2023-06-24T05:51:40;98688.19;;;22.72;60.12
49297;BME280;35163;48.878;18.040;2023-06-24T05:54:07;98689.63;;;22.76;59.78
49297;BME280;35163;48.878;18.040;2023-06-24T05:56:34;98689.00;;;22.84;59.27
49297;BME280;35163;48.878;18.040;2023-06-24T05:59:08;98692.38;;;22.86;59.13
49297;BME280;35163;48.878;18.040;2023-06-24T06:01:35;98702.91;;;22.86;59.56
49297;BME280;35163;48.878;18.040;2023-06-24T06:04:02;98700.63;;;22.93;59.68
49297;BME280;35163;48.878;18.040;2023-06-24T06:06:28;98704.59;;;22.99;58.55
49297;BME280;35163;48.878;18.040;2023-06-24T06:08:58;98706.13;;;23.01;58.35
49297;BME280;35163;48.878;18.040;2023-06-24T06:11:25;98709.38;;;23.05;59.15
49297;BME280;35163;48.878;18.040;2023-06-24T06:13:52;98704.94;;;23.05;58.17
49297;BME280;35163;48.878;18.040;2023-06-24T06:16:19;98706.16;;;23.13;58.39
49297;BME280;35163;48.878;18.040;2023-06-24T06:18:46;98697.88;;;23.17;58.34
49297;BME280;35163;48.878;18.040;2023-06-24T06:21:12;98702.50;;;23.25;58.55
49297;BME280;35163;48.878;18.040;2023-06-24T06:23:39;98703.69;;;23.33;57.80
49297;BME280;35163;48.878;18.040;2023-06-24T06:26:06;98704.88;;;23.40;57.26
49297;BME280;35163;48.878;18.040;2023-06-24T06:28:32;98709.69;;;23.46;57.32
49297;BME280;35163;48.878;18.040;2023-06-24T06:30:59;98709.91;;;23.54;57.46
49297;BME280;35163;48.878;18.040;2023-06-24T06:33:26;98705.09;;;23.60;56.96
49297;BME280;35163;48.878;18.040;2023-06-24T06:35:52;98709.63;;;23.69;57.01
49297;BME280;35163;48.878;18.040;2023-06-24T06:38:19;98707.56;;;23.73;56.38
49297;BME280;35163;48.878;18.040;2023-06-24T06:40:46;98716.06;;;23.76;56.66
49297;BME280;35163;48.878;18.040;2023-06-24T06:43:12;98714.84;;;23.81;56.60
49297;BME280;35163;48.878;18.040;2023-06-24T06:45:39;98713.38;;;23.88;57.39
49297;BME280;35163;48.878;18.040;2023-06-24T06:48:06;98719.00;;;23.95;56.21
49297;BME280;35163;48.878;18.040;2023-06-24T06:50:34;98721.97;;;24.01;56.67
49297;BME280;35163;48.878;18.040;2023-06-24T06:53:04;98717.13;;;24.07;56.09
49297;BME280;35163;48.878;18.040;2023-06-24T06:55:31;98716.75;;;24.11;56.32
49297;BME280;35163;48.878;18.040;2023-06-24T06:57:58;98723.22;;;24.19;55.72
49297;BME280;35163;48.878;18.040;2023-06-24T07:00:24;98709.50;;;24.25;55.26
49297;BME280;35163;48.878;18.040;2023-06-24T07:02:51;98712.31;;;24.33;55.97
49297;BME280;35163;48.878;18.040;2023-06-24T07:05:18;98717.91;;;24.40;55.30
49297;BME280;35163;48.878;18.040;2023-06-24T07:07:44;98724.75;;;24.43;55.42
49297;BME280;35163;48.878;18.040;2023-06-24T07:10:12;98720.06;;;24.46;55.39
49297;BME280;35163;48.878;18.040;2023-06-24T07:12:42;98716.63;;;24.56;55.60
49297;BME280;35163;48.878;18.040;2023-06-24T07:15:09;98716.69;;;24.66;55.32
49297;BME280;35163;48.878;18.040;2023-06-24T07:17:39;98722.31;;;24.82;55.45
49297;BME280;35163;48.878;18.040;2023-06-24T07:20:06;98722.25;;;25.04;54.87
49297;BME280;35163;48.878;18.040;2023-06-24T07:22:33;98716.88;;;25.15;55.06
49297;BME280;35163;48.878;18.040;2023-06-24T07:25:00;98721.34;;;25.24;53.01
49297;BME280;35163;48.878;18.040;2023-06-24T07:27:27;98717.22;;;25.42;53.81
49297;BME280;35163;48.878;18.040;2023-06-24T07:29:53;98713.19;;;25.57;53.89
49297;BME280;35163;48.878;18.040;2023-06-24T07:32:20;98717.13;;;25.73;52.23
49297;BME280;35163;48.878;18.040;2023-06-24T07:34:47;98721.88;;;25.79;51.62
49297;BME280;35163;48.878;18.040;2023-06-24T07:37:14;98724.94;;;25.94;52.30
49297;BME280;35163;48.878;18.040;2023-06-24T07:39:50;98733.44;;;26.08;50.84
49297;BME280;35163;48.878;18.040;2023-06-24T07:42:17;98729.91;;;26.27;51.91
49297;BME280;35163;48.878;18.040;2023-06-24T07:44:46;98731.31;;;26.31;51.22
49297;BME280;35163;48.878;18.040;2023-06-24T07:47:13;98732.84;;;26.34;50.88
49297;BME280;35163;48.878;18.040;2023-06-24T07:49:43;98739.69;;;26.37;50.58
49297;BME280;35163;48.878;18.040;2023-06-24T07:52:10;98735.25;;;26.37;50.04
49297;BME280;35163;48.878;18.040;2023-06-24T07:54:38;98739.09;;;26.33;50.43
49297;BME280;35163;48.878;18.040;2023-06-24T07:57:05;98738.72;;;26.38;49.49
49297;BME280;35163;48.878;18.040;2023-06-24T07:59:32;98738.84;;;26.36;48.84
49297;BME280;35163;48.878;18.040;2023-06-24T08:01:59;98741.66;;;26.35;49.09
49297;BME280;35163;48.878;18.040;2023-06-24T08:04:26;98743.28;;;26.26;48.97
49297;BME280;35163;48.878;18.040;2023-06-24T08:06:53;98743.03;;;26.19;49.09
49297;BME280;35163;48.878;18.040;2023-06-24T08:09:19;98745.53;;;26.20;49.06
49297;BME280;35163;48.878;18.040;2023-06-24T08:11:46;98750.03;;;26.20;49.86
49297;BME280;35163;48.878;18.040;2023-06-24T08:14:13;98754.03;;;26.24;49.24
49297;BME280;35163;48.878;18.040;2023-06-24T08:16:39;98747.78;;;26.15;49.41
49297;BME280;35163;48.878;18.040;2023-06-24T08:19:06;98754.50;;;26.09;49.94
49297;BME280;35163;48.878;18.040;2023-06-24T08:21:33;98753.09;;;26.05;49.95
49297;BME280;35163;48.878;18.040;2023-06-24T08:24:01;98760.47;;;26.02;49.84
49297;BME280;35163;48.878;18.040;2023-06-24T08:26:27;98757.81;;;26.02;50.24
49297;BME280;35163;48.878;18.040;2023-06-24T08:28:54;98758.38;;;25.95;50.11
49297;BME280;35163;48.878;18.040;2023-06-24T08:31:21;98761.31;;;25.92;49.86
49297;BME280;35163;48.878;18.040;2023-06-24T08:33:52;98765.09;;;26.00;50.40
49297;BME280;35163;48.878;18.040;2023-06-24T08:36:23;98756.56;;;25.86;49.81
49297;BME280;35163;48.878;18.040;2023-06-24T08:38:50;98755.88;;;25.84;50.22
49297;BME280;35163;48.878;18.040;2023-06-24T08:41:17;98760.75;;;25.79;49.85
49297;BME280;35163;48.878;18.040;2023-06-24T08:43:44;98763.13;;;25.72;50.60
49297;BME280;35163;48.878;18.040;2023-06-24T08:46:12;98758.63;;;25.63;50.28
49297;BME280;35163;48.878;18.040;2023-06-24T08:48:40;98765.50;;;25.65;50.62
49297;BME280;35163;48.878;18.040;2023-06-24T08:51:11;98764.31;;;25.58;51.40
49297;BME280;35163;48.878;18.040;2023-06-24T08:53:42;98766.28;;;25.56;51.22
49297;BME280;35163;48.878;18.040;2023-06-24T08:56:09;98766.81;;;25.50;51.76
49297;BME280;35163;48.878;18.040;2023-06-24T08:58:37;98764.03;;;25.41;51.72
49297;BME280;35163;48.878;18.040;2023-06-24T09:01:05;98760.25;;;25.44;51.66
49297;BME280;35163;48.878;18.040;2023-06-24T09:03:33;98770.00;;;25.43;51.68
49297;BME280;35163;48.878;18.040;2023-06-24T09:05:59;98775.84;;;25.47;52.08
49297;BME280;35163;48.878;18.040;2023-06-24T09:08:26;98779.34;;;25.47;51.14
49297;BME280;35163;48.878;18.040;2023-06-24T09:10:53;98776.00;;;25.45;51.36
49297;BME280;35163;48.878;18.040;2023-06-24T09:13:27;98782.78;;;25.38;51.44
49297;BME280;35163;48.878;18.040;2023-06-24T09:16:10;98783.34;;;25.32;51.88
49297;BME280;35163;48.878;18.040;2023-06-24T09:18:37;98776.63;;;25.28;52.25
49297;BME280;35163;48.878;18.040;2023-06-24T09:21:06;98773.31;;;25.26;52.02
49297;BME280;35163;48.878;18.040;2023-06-24T09:23:39;98779.41;;;25.26;52.15
49297;BME280;35163;48.878;18.040;2023-06-24T09:26:09;98774.25;;;25.24;52.62
49297;BME280;35163;48.878;18.040;2023-06-24T09:28:37;98781.75;;;25.19;53.32
49297;BME280;35163;48.878;18.040;2023-06-24T09:31:08;98788.31;;;25.15;52.34
49297;BME280;35163;48.878;18.040;2023-06-24T09:33:45;98789.97;;;25.16;52.99
49297;BME280;35163;48.878;18.040;2023-06-24T09:36:22;98788.31;;;25.15;52.52
49297;BME280;35163;48.878;18.040;2023-06-24T09:38:50;98792.19;;;25.11;52.33
49297;BME280;35163;48.878;18.040;2023-06-24T09:41:16;98795.81;;;25.10;52.18
49297;BME280;35163;48.878;18.040;2023-06-24T09:43:43;98798.00;;;25.05;52.42
49297;BME280;35163;48.878;18.040;2023-06-24T09:46:11;98781.88;;;25.08;53.62
49297;BME280;35163;48.878;18.040;2023-06-24T09:48:38;98788.81;;;25.09;51.89
49297;BME280;35163;48.878;18.040;2023-06-24T09:51:06;98789.41;;;25.12;52.34
49297;BME280;35163;48.878;18.040;2023-06-24T09:56:13;98792.50;;;25.28;52.05
49297;BME280;35163;48.878;18.040;2023-06-24T09:58:44;98789.34;;;25.34;52.33
49297;BME280;35163;48.878;18.040;2023-06-24T10:01:11;98787.28;;;25.38;51.72
49297;BME280;35163;48.878;18.040;2023-06-24T10:03:38;98795.88;;;25.40;51.38
49297;BME280;35163;48.878;18.040;2023-06-24T10:06:06;98792.72;;;25.46;51.50
49297;BME280;35163;48.878;18.040;2023-06-24T10:08:36;98795.94;;;25.50;50.71
49297;BME280;35163;48.878;18.040;2023-06-24T10:11:03;98793.97;;;25.52;50.21
49297;BME280;35163;48.878;18.040;2023-06-24T10:13:30;98790.78;;;25.58;51.18
49297;BME280;35163;48.878;18.040;2023-06-24T10:15:57;98791.97;;;25.65;50.17
49297;BME280;35163;48.878;18.040;2023-06-24T10:18:34;98791.41;;;25.71;49.76
49297;BME280;35163;48.878;18.040;2023-06-24T10:21:07;98798.78;;;25.78;49.47
49297;BME280;35163;48.878;18.040;2023-06-24T10:23:52;98794.63;;;25.85;49.81
49297;BME280;35163;48.878;18.040;2023-06-24T10:26:29;98789.59;;;25.92;50.83
49297;BME280;35163;48.878;18.040;2023-06-24T10:34:28;98794.94;;;26.12;49.03
49297;BME280;35163;48.878;18.040;2023-06-24T10:36:59;98791.56;;;26.09;48.82
49297;BME280;35163;48.878;18.040;2023-06-24T10:39:45;98787.94;;;26.11;49.06
49297;BME280;35163;48.878;18.040;2023-06-24T10:44:55;98780.69;;;26.13;48.91
49297;BME280;35163;48.878;18.040;2023-06-24T10:47:23;98793.25;;;26.11;49.01
49297;BME280;35163;48.878;18.040;2023-06-24T10:49:51;98784.44;;;26.10;48.51
49297;BME280;35163;48.878;18.040;2023-06-24T10:52:19;98783.47;;;26.11;48.22
49297;BME280;35163;48.878;18.040;2023-06-24T10:54:51;98779.56;;;26.15;48.62
49297;BME280;35163;48.878;18.040;2023-06-24T10:57:23;98779.56;;;26.15;48.49
49297;BME280;35163;48.878;18.040;2023-06-24T10:59:56;98778.75;;;26.15;48.71
49297;BME280;35163;48.878;18.040;2023-06-24T11:02:26;98781.81;;;26.20;48.83
49297;BME280;35163;48.878;18.040;2023-06-24T11:04:58;98781.09;;;26.18;48.58
49297;BME280;35163;48.878;18.040;2023-06-24T11:07:33;98780.13;;;26.19;48.12
49297;BME280;35163;48.878;18.040;2023-06-24T11:10:15;98780.69;;;26.23;49.15
49297;BME280;35163;48.878;18.040;2023-06-24T11:12:43;98785.56;;;26.17;48.55
49297;BME280;35163;48.878;18.040;2023-06-24T11:15:12;98782.06;;;26.17;48.62
49297;BME280;35163;48.878;18.040;2023-06-24T11:17:40;98782.78;;;26.19;48.58
49297;BME280;35163;48.878;18.040;2023-06-24T11:20:09;98778.31;;;26.19;48.54
49297;BME280;35163;48.878;18.040;2023-06-24T11:22:39;98772.59;;;26.14;48.73
49297;BME280;35163;48.878;18.040;2023-06-24T11:25:14;98782.50;;;26.12;48.49
49297;BME280;35163;48.878;18.040;2023-06-24T11:27:41;98776.50;;;26.10;49.00
49297;BME280;35163;48.878;18.040;2023-06-24T11:30:08;98779.44;;;26.07;48.80
49297;BME280;35163;48.878;18.040;2023-06-24T11:32:42;98789.06;;;26.08;49.26
49297;BME280;35163;48.878;18.040;2023-06-24T11:35:11;98781.13;;;26.08;48.43
49297;BME280;35163;48.878;18.040;2023-06-24T11:37:41;98780.41;;;26.06;48.37
49297;BME280;35163;48.878;18.040;2023-06-24T11:40:16;98775.81;;;26.08;48.34
49297;BME280;35163;48.878;18.040;2023-06-24T11:42:46;98767.72;;;26.09;48.48
49297;BME280;35163;48.878;18.040;2023-06-24T11:45:19;98775.69;;;26.09;48.83
49297;BME280;35163;48.878;18.040;2023-06-24T11:47:46;98775.53;;;26.11;48.57
49297;BME280;35163;48.878;18.040;2023-06-24T11:50:18;98765.09;;;26.09;47.96
49297;BME280;35163;48.878;18.040;2023-06-24T11:52:51;98771.19;;;26.10;47.79
49297;BME280;35163;48.878;18.040;2023-06-24T11:58:00;98763.25;;;26.10;47.85
49297;BME280;35163;48.878;18.040;2023-06-24T12:00:38;98766.19;;;26.07;48.13
49297;BME280;35163;48.878;18.040;2023-06-24T12:03:11;98775.13;;;26.06;48.64
49297;BME280;35163;48.878;18.040;2023-06-24T12:05:39;98774.97;;;25.98;47.64
49297;BME280;35163;48.878;18.040;2023-06-24T12:08:13;98769.41;;;25.91;48.08
49297;BME280;35163;48.878;18.040;2023-06-24T12:10:44;98769.84;;;25.96;48.44
49297;BME280;35163;48.878;18.040;2023-06-24T12:13:12;98772.88;;;25.91;47.76
49297;BME280;35163;48.878;18.040;2023-06-24T12:15:39;98772.31;;;25.88;47.98
49297;BME280;35163;48.878;18.040;2023-06-24T12:18:06;98770.38;;;25.80;48.01
49297;BME280;35163;48.878;18.040;2023-06-24T12:20:33;98774.97;;;25.78;48.58
49297;BME280;35163;48.878;18.040;2023-06-24T12:23:04;98769.25;;;25.72;48.47
49297;BME280;35163;48.878;18.040;2023-06-24T12:25:31;98777.75;;;25.66;48.93
49297;BME280;35163;48.878;18.040;2023-06-24T12:27:58;98762.84;;;25.65;48.87
49297;BME280;35163;48.878;18.040;2023-06-24T12:30:28;98784.66;;;25.57;48.77
49297;BME280;35163;48.878;18.040;2023-06-24T12:32:55;98778.66;;;25.55;48.50
49297;BME280;35163;48.878;18.040;2023-06-24T12:35:23;98782.00;;;25.47;48.97
49297;BME280;35163;48.878;18.040;2023-06-24T12:37:53;98789.38;;;25.44;49.50
49297;BME280;35163;48.878;18.040;2023-06-24T12:40:19;98791.44;;;25.40;48.96
49297;BME280;35163;48.878;18.040;2023-06-24T12:42:46;98777.78;;;25.35;49.28
49297;BME280;35163;48.878;18.040;2023-06-24T12:45:13;98787.66;;;25.33;50.08
49297;BME280;35163;48.878;18.040;2023-06-24T12:47:40;98780.97;;;25.29;49.45
49297;BME280;35163;48.878;18.040;2023-06-24T12:50:07;98775.81;;;25.27;50.39
49297;BME280;35163;48.878;18.040;2023-06-24T12:52:37;98776.09;;;25.24;50.63
49297;BME280;35163;48.878;18.040;2023-06-24T12:55:06;98772.75;;;25.22;50.47
49297;BME280;35163;48.878;18.040;2023-06-24T12:57:35;98775.97;;;25.26;49.93
49297;BME280;35163;48.878;18.040;2023-06-24T13:00:03;98784.13;;;25.22;49.77
49297;BME280;35163;48.878;18.040;2023-06-24T13:02:32;98778.84;;;25.22;50.62
49297;BME280;35163;48.878;18.040;2023-06-24T13:04:59;98779.13;;;25.19;50.48
49297;BME280;35163;48.878;18.040;2023-06-24T13:07:29;98781.06;;;25.17;49.82
49297;BME280;35163;48.878;18.040;2023-06-24T13:09:59;98782.75;;;25.18;50.46
49297;BME280;35163;48.878;18.040;2023-06-24T13:12:27;98777.19;;;25.21;50.10
49297;BME280;35163;48.878;18.040;2023-06-24T13:14:54;98781.06;;;25.17;49.41
49297;BME280;35163;48.878;18.040;2023-06-24T13:17:21;98778.31;;;25.19;49.78
49297;BME280;35163;48.878;18.040;2023-06-24T13:19:48;98780.38;;;25.15;49.65
49297;BME280;35163;48.878;18.040;2023-06-24T13:22:17;98786.63;;;25.14;49.75